createdAt,value
2018-10-02T04:40:04.479Z,3.30
2018-10-02T04:42:36.912Z,2.60
2018-10-02T04:45:09.353Z,2.70
2018-10-02T04:47:41.786Z,2.47
2018-10-02T04:50:14.206Z,3.63
2018-10-02T04:52:46.697Z,2.67
2018-10-02T04:55:19.118Z,2.07
2018-10-02T04:57:51.569Z,2.20
2018-10-02T05:00:23.982Z,2.70
2018-10-02T05:02:56.421Z,2.50
2018-10-02T05:05:28.886Z,2.10
2018-10-02T05:08:01.310Z,2.20
2018-10-02T05:10:33.742Z,2.73
2018-10-02T05:13:06.187Z,2.27
2018-10-02T05:15:38.615Z,2.47
2018-10-02T05:18:11.063Z,2.20
2018-10-02T05:20:43.912Z,2.80
2018-10-02T05:23:16.273Z,2.40
2018-10-02T05:25:48.962Z,2.60
2018-10-02T05:28:21.386Z,2.70
2018-10-02T05:30:53.787Z,2.90
2018-10-02T05:33:26.227Z,3.07
2018-10-02T05:35:58.657Z,2.90
2018-10-02T05:38:31.133Z,3.10
2018-10-02T05:41:03.544Z,3.20
2018-10-02T05:43:35.967Z,2.23
2018-10-02T05:46:08.407Z,2.57
2018-10-02T05:48:40.899Z,2.60
2018-10-02T05:51:13.355Z,2.50
2018-10-02T05:53:45.774Z,2.47
2018-10-02T05:56:18.211Z,2.60
2018-10-02T05:58:50.618Z,2.53
2018-10-02T06:01:23.427Z,2.50
2018-10-02T06:03:56.260Z,2.17
2018-10-02T06:06:29.769Z,2.10
2018-10-02T06:09:02.799Z,2.10
2018-10-02T06:11:35.609Z,2.90
2018-10-02T06:14:08.496Z,2.37
2018-10-02T06:16:41.287Z,2.23
2018-10-02T06:19:14.202Z,2.33
2018-10-02T06:21:47.039Z,2.67
2018-10-02T06:24:19.882Z,2.60
2018-10-02T06:26:52.628Z,2.93
2018-10-02T06:29:25.476Z,2.30
2018-10-02T06:31:58.243Z,3.00
2018-10-02T06:34:31.122Z,3.23
2018-10-02T06:37:03.566Z,2.60
2018-10-02T06:39:36.019Z,2.83
2018-10-02T06:42:08.442Z,3.63
2018-10-02T06:44:40.989Z,3.00
2018-10-02T06:47:13.335Z,3.20
2018-10-02T06:49:45.795Z,3.10
2018-10-02T06:52:18.416Z,3.40
2018-10-02T06:54:50.704Z,3.07
2018-10-02T06:57:23.230Z,3.47
2018-10-02T06:59:55.659Z,3.50
2018-10-02T07:02:28.363Z,3.80
2018-10-02T07:05:00.762Z,4.37
2018-10-02T07:07:33.186Z,4.40
2018-10-02T07:10:06.497Z,4.13
2018-10-02T07:12:38.994Z,3.70
2018-10-02T07:15:12.318Z,4.47
2018-10-02T07:17:44.618Z,4.17
2018-10-02T07:20:17.042Z,4.47
2018-10-02T07:22:49.742Z,4.23
2018-10-02T07:25:22.180Z,3.23
2018-10-02T07:27:54.741Z,3.30
2018-10-02T07:30:27.043Z,3.00
2018-10-02T07:32:59.554Z,3.10
2018-10-02T07:35:32.242Z,3.00
2018-10-02T07:38:04.687Z,3.27
2018-10-02T07:40:37.106Z,2.70
2018-10-02T07:43:09.527Z,2.63
2018-10-02T07:45:41.973Z,3.10
2018-10-02T07:48:14.448Z,2.97
2018-10-02T07:50:46.854Z,3.03
2018-10-02T07:53:19.307Z,2.70
2018-10-02T07:55:51.715Z,2.80
2018-10-02T07:58:24.130Z,2.33
2018-10-02T08:00:56.596Z,2.90
2018-10-02T08:03:29.010Z,2.60
2018-10-02T08:06:01.572Z,2.83
2018-10-02T08:08:33.901Z,2.70
2018-10-02T08:11:06.354Z,2.73
2018-10-02T08:13:38.899Z,2.33
2018-10-02T08:16:11.276Z,2.50
2018-10-02T08:18:43.703Z,2.87
2018-10-02T08:21:16.151Z,2.70
2018-10-02T08:23:48.580Z,2.47
2018-10-02T08:26:21.021Z,2.93
2018-10-02T08:28:53.381Z,2.77
2018-10-02T08:31:25.823Z,3.97
2018-10-02T08:33:58.222Z,2.60
2018-10-02T08:36:30.740Z,3.03
2018-10-02T08:39:04.404Z,3.50
2018-10-02T08:41:36.810Z,3.07
2018-10-02T08:44:09.239Z,3.30
2018-10-02T08:46:41.659Z,3.07
2018-10-02T08:49:14.127Z,3.40
2018-10-02T08:51:46.636Z,2.87
2018-10-02T08:54:18.957Z,3.20
2018-10-02T08:56:51.395Z,3.57
2018-10-02T08:59:23.806Z,3.00
2018-10-02T09:01:56.263Z,3.30
2018-10-02T09:04:28.671Z,2.93
2018-10-02T09:07:01.159Z,3.87
2018-10-02T09:09:33.551Z,3.50
2018-10-02T09:12:06.031Z,4.00
2018-10-02T09:14:38.466Z,3.67
2018-10-02T09:17:10.917Z,4.30
2018-10-02T09:19:43.375Z,3.63
2018-10-02T09:22:15.787Z,3.40
2018-10-02T09:24:48.224Z,3.67
2018-10-02T09:27:20.767Z,3.50
2018-10-02T09:29:53.168Z,3.73
2018-10-02T09:32:25.590Z,3.90
2018-10-02T09:34:58.003Z,4.20
2018-10-02T09:37:30.774Z,4.10
2018-10-02T09:40:03.187Z,4.50
2018-10-02T09:42:35.581Z,4.03
2018-10-02T09:45:07.990Z,4.50
2018-10-02T09:47:40.514Z,4.33
2018-10-02T09:50:12.919Z,4.47
2018-10-02T09:52:45.348Z,4.03
2018-10-02T09:55:17.883Z,4.50
2018-10-02T09:57:50.363Z,4.17
2018-10-02T10:00:22.825Z,3.73
2018-10-02T10:02:55.247Z,4.43
2018-10-02T10:05:27.693Z,3.77
2018-10-02T10:08:00.125Z,3.87
2018-10-02T10:10:32.552Z,3.80
2018-10-02T10:13:04.992Z,3.70
2018-10-02T10:15:37.442Z,3.60
2018-10-02T10:18:10.147Z,3.70
2018-10-02T10:20:42.619Z,3.40
2018-10-02T10:23:15.040Z,3.10
2018-10-02T10:25:47.480Z,3.67
2018-10-02T10:28:19.887Z,3.03
2018-10-02T10:30:52.346Z,3.30
2018-10-02T10:33:24.783Z,3.40
2018-10-02T10:35:57.219Z,3.40
2018-10-02T10:38:29.659Z,3.40
2018-10-02T10:41:02.167Z,3.13
2018-10-02T10:43:34.557Z,3.13
2018-10-02T10:46:07.065Z,3.33
2018-10-02T10:48:39.488Z,3.33
2018-10-02T10:51:11.921Z,3.20
2018-10-02T10:53:44.333Z,2.77
2018-10-02T10:56:16.796Z,3.00
2018-10-02T10:58:49.202Z,3.10
2018-10-02T11:01:21.635Z,3.20
2018-10-02T11:03:54.051Z,2.97
2018-10-02T11:06:26.495Z,3.20
2018-10-02T11:08:58.916Z,3.50
2018-10-02T11:11:31.372Z,3.30
2018-10-02T11:14:03.848Z,3.17
2018-10-02T11:16:36.264Z,3.37
2018-10-02T11:19:08.674Z,3.70
2018-10-02T11:21:41.102Z,3.70
2018-10-02T11:24:13.611Z,3.67
2018-10-02T11:26:46.023Z,4.50
2018-10-02T11:29:18.443Z,3.80
2018-10-02T11:31:50.994Z,3.97
2018-10-02T11:34:23.307Z,4.27
2018-10-02T11:36:55.793Z,3.40
2018-10-02T11:39:28.198Z,4.40
2018-10-02T11:42:00.619Z,4.20
2018-10-02T11:44:33.106Z,4.00
2018-10-02T11:47:05.484Z,4.30
2018-10-02T11:49:38.108Z,4.20
2018-10-02T11:52:10.868Z,4.40
2018-10-02T11:54:43.280Z,4.37
2018-10-02T11:57:15.714Z,3.80
2018-10-02T11:59:47.957Z,3.40
2018-10-02T12:02:20.437Z,2.93
2018-10-02T12:04:52.839Z,2.90
2018-10-02T12:07:25.262Z,2.97
2018-10-02T12:09:57.684Z,2.30
2018-10-02T12:12:30.113Z,2.07
2018-10-02T12:15:02.664Z,2.07
2018-10-02T12:17:35.086Z,2.00
2018-10-02T12:20:07.511Z,2.00
2018-10-02T12:22:40.064Z,1.70
2018-10-02T12:25:12.479Z,2.10
2018-10-02T12:27:44.924Z,1.93
2018-10-02T12:30:17.380Z,1.80
2018-10-02T12:32:49.967Z,1.90
2018-10-02T12:35:22.390Z,1.70
2018-10-02T12:37:54.830Z,2.17
2018-10-02T12:40:27.246Z,2.27
2018-10-02T12:42:59.692Z,1.80
2018-10-02T12:45:32.142Z,1.70
2018-10-02T12:48:05.206Z,1.50
2018-10-02T12:50:37.627Z,1.70
2018-10-02T12:53:10.152Z,1.50
2018-10-02T12:55:42.534Z,1.73
2018-10-02T12:58:14.963Z,1.57
2018-10-02T13:00:47.395Z,1.80
2018-10-02T13:03:19.846Z,1.47
2018-10-02T13:05:52.263Z,2.00
2018-10-02T13:08:24.699Z,1.47
2018-10-02T13:10:57.106Z,1.70
2018-10-02T13:13:29.551Z,1.57
2018-10-02T13:16:02.005Z,1.50
2018-10-02T13:18:34.442Z,1.30
2018-10-02T13:21:06.894Z,1.50
2018-10-02T13:23:39.347Z,1.63
2018-10-02T13:26:11.758Z,1.50
2018-10-02T13:28:44.198Z,1.53
2018-10-02T13:31:16.648Z,1.77
2018-10-02T13:33:49.086Z,1.83
2018-10-02T13:36:21.506Z,1.70
2018-10-02T13:38:53.931Z,1.83
2018-10-02T13:41:26.442Z,1.60
2018-10-02T13:43:58.882Z,1.40
2018-10-02T13:46:31.303Z,1.57
2018-10-02T13:49:03.730Z,1.67
2018-10-02T13:51:36.155Z,1.80
2018-10-02T13:54:08.593Z,2.00
2018-10-02T13:56:41.027Z,1.70
2018-10-02T13:59:13.486Z,2.00
2018-10-02T14:01:45.901Z,2.03
2018-10-02T14:04:18.358Z,1.70
2018-10-02T14:06:50.830Z,1.77
2018-10-02T14:09:23.303Z,1.90
2018-10-02T14:11:55.721Z,1.70
2018-10-02T14:14:28.181Z,1.90
2018-10-02T14:17:00.593Z,1.80
2018-10-02T14:19:33.060Z,2.07
2018-10-02T14:22:05.483Z,1.80
2018-10-02T14:24:37.910Z,2.20
2018-10-02T14:27:10.361Z,2.20
2018-10-02T14:29:42.825Z,2.07
2018-10-02T14:32:15.254Z,2.20
2018-10-02T14:34:47.682Z,2.87
2018-10-02T14:37:20.133Z,2.90
2018-10-02T14:39:52.558Z,3.17
2018-10-02T14:42:24.994Z,3.30
2018-10-02T14:44:57.418Z,3.80
2018-10-02T14:47:30.069Z,3.47
2018-10-02T14:50:02.532Z,3.60
2018-10-02T14:52:34.962Z,3.87
2018-10-02T14:55:07.395Z,4.27
2018-10-02T14:57:39.826Z,4.13
2018-10-02T15:00:12.274Z,4.20
2018-10-02T15:02:44.720Z,4.07
2018-10-02T15:05:17.145Z,4.00
2018-10-02T15:07:49.553Z,4.50
2018-10-02T15:10:22.004Z,4.37
2018-10-02T15:12:54.457Z,4.50
2018-10-02T15:15:26.899Z,4.53
2018-10-02T15:17:59.367Z,5.00
2018-10-02T15:20:31.761Z,5.27
2018-10-02T15:23:04.175Z,5.30
2018-10-02T15:25:36.626Z,4.87
2018-10-02T15:28:09.048Z,5.90
2018-10-02T15:30:41.476Z,6.20
2018-10-02T15:33:14.171Z,5.67
2018-10-02T15:35:46.618Z,5.37
2018-10-02T15:38:19.122Z,5.57
2018-10-02T15:40:51.482Z,5.73
2018-10-02T15:43:23.923Z,5.00
2018-10-02T15:45:56.412Z,5.30
2018-10-02T15:48:28.854Z,5.00
2018-10-02T15:51:01.376Z,5.50
2018-10-02T15:53:33.996Z,5.37
2018-10-02T15:56:06.473Z,5.00
2018-10-02T15:58:38.952Z,5.77
2018-10-02T16:01:11.401Z,5.57
2018-10-02T16:03:43.834Z,5.20
2018-10-02T16:06:16.290Z,6.50
2018-10-02T16:08:48.702Z,5.57
2018-10-02T16:11:21.195Z,5.93
2018-10-02T16:13:53.567Z,5.90
2018-10-02T16:16:26.042Z,5.17
2018-10-02T16:18:58.450Z,5.43
2018-10-02T16:21:30.890Z,5.73
2018-10-02T16:24:03.650Z,5.30
2018-10-02T16:26:36.071Z,5.67
2018-10-02T16:29:08.500Z,6.33
2018-10-02T16:31:40.912Z,5.73
2018-10-02T16:34:13.330Z,6.90
2018-10-02T16:36:45.726Z,7.63
2018-10-02T16:39:18.160Z,7.97
2018-10-02T16:41:50.567Z,9.10
2018-10-02T16:44:23.046Z,7.80
2018-10-02T16:46:55.510Z,7.50
2018-10-02T16:49:27.891Z,8.10
2018-10-02T16:52:00.293Z,7.23
2018-10-02T16:54:32.815Z,8.33
2018-10-02T16:57:05.608Z,7.83
2018-10-02T16:59:38.003Z,7.70
2018-10-02T17:02:10.439Z,8.67
2018-10-02T17:04:42.866Z,8.40
2018-10-02T17:07:15.278Z,8.27
2018-10-02T17:09:47.788Z,7.50
2018-10-02T17:12:20.194Z,8.63
2018-10-02T17:14:52.657Z,9.30
2018-10-02T17:17:25.071Z,8.33
2018-10-02T17:19:57.502Z,8.80
2018-10-02T17:22:29.922Z,9.07
2018-10-02T17:25:02.370Z,8.97
2018-10-02T17:27:34.858Z,9.17
2018-10-02T17:30:07.290Z,9.63
2018-10-02T17:32:39.710Z,9.30
2018-10-02T17:35:12.138Z,9.60
2018-10-02T17:37:44.570Z,9.77
2018-10-02T17:40:17.004Z,9.70
2018-10-02T17:42:49.410Z,9.20
2018-10-02T17:45:21.866Z,9.53
2018-10-02T17:47:54.270Z,9.83
2018-10-02T17:50:26.694Z,9.53
2018-10-02T17:52:59.113Z,9.47
2018-10-02T17:55:31.579Z,9.53
2018-10-02T17:58:04.009Z,9.83
2018-10-02T18:00:36.496Z,10.67
2018-10-02T18:03:08.912Z,9.67
2018-10-02T18:05:41.338Z,10.33
2018-10-02T18:08:13.758Z,9.60
2018-10-02T18:10:46.252Z,10.57
2018-10-02T18:13:18.658Z,10.60
2018-10-02T18:15:51.375Z,10.57
2018-10-02T18:18:23.782Z,10.43
2018-10-02T18:20:56.260Z,11.20
2018-10-02T18:23:28.678Z,10.47
2018-10-02T18:26:01.103Z,11.10
2018-10-02T18:28:33.562Z,10.27
2018-10-02T18:31:06.039Z,9.63
2018-10-02T18:33:38.706Z,9.60
2018-10-02T18:36:11.187Z,9.53
2018-10-02T18:38:43.700Z,9.80
2018-10-02T18:41:16.117Z,11.60
2018-10-02T18:43:48.527Z,11.50
2018-10-02T18:46:20.985Z,10.80
2018-10-02T18:48:53.441Z,10.43
2018-10-02T18:51:25.923Z,10.10
2018-10-02T18:53:58.342Z,10.23
2018-10-02T18:56:30.805Z,10.23
2018-10-02T18:59:03.179Z,10.93
2018-10-02T19:01:35.623Z,11.73
2018-10-02T19:04:08.034Z,12.47
2018-10-02T19:06:40.474Z,11.27
2018-10-02T19:09:12.901Z,10.83
2018-10-02T19:11:45.330Z,14.53
2018-10-02T19:14:17.797Z,13.93
2018-10-02T19:16:50.290Z,14.20
2018-10-02T19:19:22.939Z,14.47
2018-10-02T19:21:55.382Z,14.17
2018-10-02T19:24:27.851Z,13.97
2018-10-02T19:27:00.299Z,12.90
2018-10-02T19:29:32.734Z,13.47
2018-10-02T19:32:05.299Z,13.40
2018-10-02T19:34:37.733Z,12.87
2018-10-02T19:37:10.210Z,14.03
2018-10-02T19:39:42.652Z,13.27
2018-10-02T19:42:15.092Z,12.53
2018-10-02T19:44:47.514Z,14.17
2018-10-02T19:47:19.990Z,14.63
2018-10-02T19:49:52.435Z,13.10
2018-10-02T19:52:25.170Z,14.33
2018-10-02T19:54:57.595Z,12.43
2018-10-02T19:57:30.116Z,13.60
2018-10-02T20:00:02.594Z,12.10
2018-10-02T20:02:35.035Z,12.47
2018-10-02T20:05:07.479Z,13.57
2018-10-02T20:07:39.918Z,12.37
2018-10-02T20:10:12.682Z,12.40
2018-10-02T20:12:45.139Z,11.80
2018-10-02T20:15:17.568Z,13.30
2018-10-02T20:17:49.998Z,13.57
2018-10-02T20:20:22.454Z,13.17
2018-10-02T20:22:54.891Z,13.40
2018-10-02T20:25:27.314Z,13.73
2018-10-02T20:27:59.758Z,12.50
2018-10-02T20:30:32.177Z,13.80
2018-10-02T20:33:04.610Z,14.40
2018-10-02T20:35:37.019Z,13.33
2018-10-02T20:38:09.475Z,14.47
2018-10-02T20:40:41.919Z,13.57
2018-10-02T20:43:14.355Z,13.87
2018-10-02T20:45:47.048Z,17.13
